createdAt,value
2019-02-21T00:01:20.825Z,99759.70
2019-02-21T00:03:52.559Z,99759.43
2019-02-21T00:06:24.395Z,99759.61
2019-02-21T00:08:56.421Z,99757.55
2019-02-21T00:11:28.137Z,99760.94
2019-02-21T00:14:00.213Z,99765.66
2019-02-21T00:16:32.284Z,99762.69
2019-02-21T00:19:04.923Z,99769.19
2019-02-21T00:21:37.145Z,99758.55
2019-02-21T00:24:10.022Z,99761.58
2019-02-21T00:26:44.096Z,99764.58
2019-02-21T00:29:15.775Z,99770.27
2019-02-21T00:31:47.435Z,99771.19
2019-02-21T00:34:19.400Z,99771.97
2019-02-21T00:36:51.022Z,99771.55
2019-02-21T00:39:22.784Z,99773.69
2019-02-21T00:41:54.405Z,99775.41
2019-02-21T00:44:26.091Z,99775.84
2019-02-21T00:46:57.668Z,99782.59
2019-02-21T00:49:29.388Z,99786.48
2019-02-21T00:52:02.773Z,99782.63
2019-02-21T00:54:34.642Z,99780.98
2019-02-21T00:57:06.350Z,99783.98
2019-02-21T00:59:37.957Z,99784.48
2019-02-21T01:02:09.633Z,99783.72
2019-02-21T01:04:41.372Z,99784.67
2019-02-21T01:07:13.117Z,99783.45
2019-02-21T01:09:45.027Z,99783.55
2019-02-21T01:12:16.965Z,99785.76
2019-02-21T01:14:48.846Z,99784.94
2019-02-21T01:17:20.498Z,99780.25
2019-02-21T01:19:52.582Z,99782.45
2019-02-21T01:22:24.537Z,99785.52
2019-02-21T01:24:56.433Z,99792.41
2019-02-21T01:27:29.005Z,99786.86
2019-02-21T01:30:00.766Z,99783.06
2019-02-21T01:32:32.480Z,99783.49
2019-02-21T01:35:04.432Z,99783.55
2019-02-21T01:37:36.231Z,99775.88
2019-02-21T01:40:08.639Z,99778.88
2019-02-21T01:42:40.409Z,99780.59
2019-02-21T01:45:12.275Z,99783.61
2019-02-21T01:47:44.502Z,99782.36
2019-02-21T01:50:16.247Z,99777.28
2019-02-21T01:52:47.948Z,99787.92
2019-02-21T01:55:20.324Z,99786.19
2019-02-21T01:57:52.431Z,99790.86
2019-02-21T02:00:24.194Z,99780.73
2019-02-21T02:02:57.555Z,99778.19
2019-02-21T02:05:29.071Z,99784.16
2019-02-21T02:08:00.629Z,99778.19
2019-02-21T02:10:32.482Z,99773.95
2019-02-21T02:13:04.043Z,99779.13
2019-02-21T02:15:35.766Z,99779.16
2019-02-21T02:18:07.488Z,99773.59
2019-02-21T02:20:39.128Z,99772.36
2019-02-21T02:23:10.883Z,99774.16
2019-02-21T02:25:42.955Z,99776.34
2019-02-21T02:28:14.499Z,99771.27
2019-02-21T02:30:46.157Z,99766.17
2019-02-21T02:33:17.888Z,99776.88
2019-02-21T02:35:49.682Z,99773.94
2019-02-21T02:38:21.286Z,99770.11
2019-02-21T02:40:52.915Z,99776.16
2019-02-21T02:43:24.523Z,99774.89
2019-02-21T02:45:56.136Z,99774.46
2019-02-21T02:48:27.620Z,99779.14
2019-02-21T02:50:59.232Z,99774.46
2019-02-21T02:53:33.954Z,99770.61
2019-02-21T02:56:05.443Z,99767.19
2019-02-21T02:58:37.576Z,99771.89
2019-02-21T03:01:09.574Z,99768.12
2019-02-21T03:03:41.338Z,99772.95
2019-02-21T03:06:12.986Z,99773.42
2019-02-21T03:08:44.793Z,99770.05
2019-02-21T03:11:16.383Z,99773.96
2019-02-21T03:13:47.928Z,99768.02
2019-02-21T03:16:19.717Z,99768.47
2019-02-21T03:18:51.409Z,99776.55
2019-02-21T03:21:22.970Z,99768.91
2019-02-21T03:23:54.596Z,99768.11
2019-02-21T03:26:26.107Z,99774.97
2019-02-21T03:28:57.869Z,99774.99
2019-02-21T03:31:30.883Z,99774.09
2019-02-21T03:34:02.486Z,99776.64
2019-02-21T03:36:37.350Z,99782.63
2019-02-21T03:39:10.527Z,99783.05
2019-02-21T03:41:42.221Z,99783.45
2019-02-21T03:44:13.903Z,99793.30
2019-02-21T03:46:45.475Z,99795.03
2019-02-21T03:49:17.122Z,99799.75
2019-02-21T03:51:48.674Z,99794.26
2019-02-21T03:54:20.387Z,99792.16
2019-02-21T03:56:51.964Z,99795.17
2019-02-21T03:59:23.558Z,99797.73
2019-02-21T04:02:04.856Z,99798.19
2019-02-21T04:04:28.600Z,99801.20
2019-02-21T04:07:00.454Z,99801.60
2019-02-21T04:09:32.153Z,99802.44
2019-02-21T04:12:03.967Z,99801.59
2019-02-21T04:14:35.565Z,99802.00
2019-02-21T04:17:07.135Z,99801.53
2019-02-21T04:19:38.855Z,99794.23
2019-02-21T04:22:10.700Z,99794.73
2019-02-21T04:24:42.530Z,99796.53
2019-02-21T04:27:14.264Z,99802.59
2019-02-21T04:29:46.145Z,99799.67
2019-02-21T04:32:17.887Z,99800.12
2019-02-21T04:34:49.522Z,99798.44
2019-02-21T04:37:21.084Z,99802.72
2019-02-21T04:39:52.755Z,99807.01
2019-02-21T04:42:24.294Z,99799.76
2019-02-21T04:44:55.867Z,99798.46
2019-02-21T04:47:27.517Z,99801.05
2019-02-21T04:50:00.636Z,99796.36
2019-02-21T04:52:32.472Z,99797.69
2019-02-21T04:55:04.350Z,99797.23
2019-02-21T04:57:36.101Z,99800.23
2019-02-21T05:00:09.615Z,99794.66
2019-02-21T05:02:41.476Z,99798.08
2019-02-21T05:05:12.961Z,99798.53
2019-02-21T05:07:44.467Z,99802.83
2019-02-21T05:10:16.048Z,99796.42
2019-02-21T05:12:47.991Z,99801.61
2019-02-21T05:15:19.675Z,99800.31
2019-02-21T05:17:51.753Z,99806.27
2019-02-21T05:20:23.466Z,99797.23
2019-02-21T05:22:55.310Z,99803.61
2019-02-21T05:25:31.000Z,99802.33
2019-02-21T05:28:20.426Z,99807.01
2019-02-21T05:30:55.162Z,99806.20
2019-02-21T05:33:57.635Z,99805.78
2019-02-21T05:36:54.355Z,99805.82
2019-02-21T05:39:44.045Z,99813.09
2019-02-21T05:42:24.977Z,99816.58
2019-02-21T05:45:14.276Z,99819.20
2019-02-21T05:47:57.193Z,99821.78
2019-02-21T05:50:47.730Z,99824.79
2019-02-21T05:53:28.465Z,99826.52
2019-02-21T05:56:19.166Z,99825.23
2019-02-21T05:59:02.924Z,99830.31
2019-02-21T06:01:53.400Z,99824.33
2019-02-21T06:04:38.853Z,99829.03
2019-02-21T06:07:17.718Z,99836.72
2019-02-21T06:10:07.077Z,99837.97
2019-02-21T06:12:59.974Z,99834.98
2019-02-21T06:15:41.819Z,99837.92
2019-02-21T06:18:29.246Z,99844.27
2019-02-21T06:21:06.868Z,99847.63
2019-02-21T06:23:59.852Z,99848.84
2019-02-21T06:26:50.308Z,99851.79
2019-02-21T06:29:28.730Z,99854.27
2019-02-21T06:32:00.563Z,99855.92
2019-02-21T06:34:32.207Z,99857.73
2019-02-21T06:37:04.070Z,99864.41
2019-02-21T06:39:36.198Z,99865.83
2019-02-21T06:42:07.948Z,99876.75
2019-02-21T06:44:39.676Z,99885.08
2019-02-21T06:47:11.255Z,99887.67
2019-02-21T06:49:43.092Z,99890.39
2019-02-21T06:52:15.718Z,99888.64
2019-02-21T06:54:48.216Z,99897.28
2019-02-21T06:57:20.565Z,99904.66
2019-02-21T06:59:52.264Z,99907.05
2019-02-21T07:02:25.051Z,99911.27
2019-02-21T07:04:56.875Z,99914.31
2019-02-21T07:07:29.499Z,99911.57
2019-02-21T07:10:01.386Z,99911.38
2019-02-21T07:12:33.070Z,99918.20
2019-02-21T07:15:05.290Z,99921.06
2019-02-21T07:17:41.844Z,99917.69
2019-02-21T07:20:13.022Z,99919.75
2019-02-21T07:22:45.009Z,99925.87
2019-02-21T07:25:38.283Z,99920.70
2019-02-21T07:28:12.539Z,99924.17
2019-02-21T07:30:43.331Z,99931.44
2019-02-21T07:33:15.101Z,99931.63
2019-02-21T07:35:48.173Z,99932.37
2019-02-21T07:38:20.045Z,99932.70
2019-02-21T07:40:51.921Z,99930.56
2019-02-21T07:43:24.988Z,99933.64
2019-02-21T07:45:58.427Z,99934.95
2019-02-21T07:48:29.967Z,99938.09
2019-02-21T07:51:01.584Z,99937.29
2019-02-21T07:53:33.658Z,99944.43
2019-02-21T07:56:05.625Z,99941.30
2019-02-21T07:58:39.941Z,99942.67
2019-02-21T08:01:11.617Z,99938.50
2019-02-21T08:03:45.931Z,99945.08
2019-02-21T08:06:16.813Z,99940.85
2019-02-21T08:08:48.445Z,99944.76
2019-02-21T08:11:20.512Z,99935.89
2019-02-21T08:13:52.363Z,99942.24
2019-02-21T08:16:24.310Z,99941.67
2019-02-21T08:18:56.019Z,99940.73
2019-02-21T08:21:28.497Z,99935.55
2019-02-21T08:24:00.459Z,99934.88
2019-02-21T08:26:32.309Z,99937.95
2019-02-21T08:29:05.984Z,99943.36
2019-02-21T08:31:37.601Z,99940.23
2019-02-21T08:34:25.850Z,99943.25
2019-02-21T08:36:57.645Z,99938.16
2019-02-21T08:39:30.899Z,99941.82
2019-02-21T08:42:02.643Z,99941.55
2019-02-21T08:44:34.390Z,99941.86
2019-02-21T08:47:06.030Z,99942.22
2019-02-21T08:49:40.121Z,99940.17
2019-02-21T08:52:11.485Z,99946.86
2019-02-21T08:54:43.361Z,99944.42
2019-02-21T08:57:15.519Z,99940.55
2019-02-21T08:59:48.387Z,99942.67
2019-02-21T09:02:20.310Z,99944.50
2019-02-21T09:04:52.909Z,99947.41
2019-02-21T09:07:24.897Z,99951.36
2019-02-21T09:09:56.808Z,99947.20
2019-02-21T09:12:28.811Z,99950.02
2019-02-21T09:15:00.618Z,99949.17
2019-02-21T09:17:32.618Z,99941.46
2019-02-21T09:20:04.898Z,99950.06
2019-02-21T09:22:36.992Z,99940.06
2019-02-21T09:25:11.784Z,99947.40
2019-02-21T09:27:43.703Z,99942.94
2019-02-21T09:30:18.900Z,99944.52
2019-02-21T09:32:50.822Z,99941.29
2019-02-21T09:35:22.799Z,99944.52
2019-02-21T09:37:54.842Z,99940.86
2019-02-21T09:40:28.552Z,99935.80
2019-02-21T09:43:00.409Z,99935.32
2019-02-21T09:45:32.908Z,99937.70
2019-02-21T09:48:04.732Z,99943.36
2019-02-21T09:50:37.176Z,99938.72
2019-02-21T09:53:09.395Z,99938.55
2019-02-21T09:55:41.360Z,99938.88
2019-02-21T09:58:13.141Z,99942.16
2019-02-21T10:00:45.012Z,99939.68
2019-02-21T10:03:17.242Z,99938.59
2019-02-21T10:05:49.943Z,99939.46
2019-02-21T10:08:22.148Z,99936.01
2019-02-21T10:10:54.082Z,99931.37
2019-02-21T10:13:25.957Z,99923.08
2019-02-21T10:15:57.894Z,99921.23
2019-02-21T10:18:29.705Z,99927.09
2019-02-21T10:21:01.828Z,99929.86
2019-02-21T10:23:33.959Z,99927.80
2019-02-21T10:26:05.823Z,99921.65
2019-02-21T10:28:37.410Z,99926.03
2019-02-21T10:31:09.213Z,99920.81
2019-02-21T10:33:47.024Z,99913.72
2019-02-21T10:36:14.798Z,99916.30
2019-02-21T10:38:46.401Z,99909.69
2019-02-21T10:41:18.910Z,99912.55
2019-02-21T10:43:50.784Z,99912.52
2019-02-21T10:46:23.893Z,99909.69
2019-02-21T10:48:55.811Z,99908.56
2019-02-21T10:51:28.224Z,99900.30
2019-02-21T10:54:00.204Z,99904.03
2019-02-21T10:56:32.168Z,99904.13
2019-02-21T10:59:03.801Z,99897.34
2019-02-21T11:01:35.476Z,99892.70
2019-02-21T11:04:07.317Z,99886.38
2019-02-21T11:06:38.971Z,99878.61
2019-02-21T11:09:16.781Z,99867.51
2019-02-21T11:11:48.544Z,99869.94
2019-02-21T11:14:20.342Z,99867.97
2019-02-21T11:16:52.023Z,99859.89
2019-02-21T11:19:23.711Z,99860.48
2019-02-21T11:21:55.876Z,99854.66
2019-02-21T11:24:27.663Z,99854.30
2019-02-21T11:26:59.651Z,99854.06
2019-02-21T11:29:31.956Z,99845.68
2019-02-21T11:32:04.214Z,99840.96
2019-02-21T11:34:38.077Z,99844.48
2019-02-21T11:37:09.649Z,99840.45
2019-02-21T11:39:41.548Z,99834.30
2019-02-21T11:42:13.246Z,99834.80
2019-02-21T11:44:44.902Z,99825.64
2019-02-21T11:47:16.702Z,99831.37
2019-02-21T11:49:48.347Z,99822.23
2019-02-21T11:52:20.404Z,99818.13
2019-02-21T11:54:52.249Z,99823.80
2019-02-21T11:57:24.194Z,99816.34
2019-02-21T11:59:56.093Z,99815.28
2019-02-21T12:02:38.448Z,99801.31
2019-02-21T12:05:02.240Z,99794.55
2019-02-21T12:07:34.157Z,99806.09
2019-02-21T12:10:08.155Z,99795.23
2019-02-21T12:12:40.326Z,99801.06
2019-02-21T12:15:13.440Z,99800.11
2019-02-21T12:17:45.544Z,99794.34
2019-02-21T12:20:17.730Z,99785.53
2019-02-21T12:22:49.732Z,99787.59
2019-02-21T12:25:21.471Z,99789.30
2019-02-21T12:27:53.151Z,99795.17
2019-02-21T12:30:25.043Z,99781.76
2019-02-21T12:32:56.701Z,99791.30
2019-02-21T12:35:29.959Z,99781.86
2019-02-21T12:38:02.015Z,99791.19
2019-02-21T12:40:33.843Z,99785.39
2019-02-21T12:43:05.844Z,99784.95
2019-02-21T12:45:37.523Z,99781.63
2019-02-21T12:48:09.333Z,99783.32
2019-02-21T12:50:44.553Z,99782.14
2019-02-21T12:53:16.200Z,99777.82
2019-02-21T12:55:47.924Z,99776.78
2019-02-21T12:58:20.025Z,99776.73
2019-02-21T13:00:51.796Z,99772.50
2019-02-21T13:03:23.719Z,99774.05
2019-02-21T13:05:55.786Z,99771.83
2019-02-21T13:08:27.603Z,99771.75
2019-02-21T13:10:59.497Z,99771.02
2019-02-21T13:13:31.562Z,99770.31
2019-02-21T13:16:04.733Z,99770.48
2019-02-21T13:18:36.845Z,99765.52
2019-02-21T13:21:08.721Z,99767.52
2019-02-21T13:23:42.785Z,99766.19
2019-02-21T13:26:14.115Z,99773.37
2019-02-21T13:28:45.935Z,99768.96
2019-02-21T13:31:18.015Z,99761.55
2019-02-21T13:33:49.828Z,99765.63
2019-02-21T13:36:21.983Z,99765.59
2019-02-21T13:38:54.387Z,99763.75
2019-02-21T13:41:27.329Z,99765.86
2019-02-21T13:43:59.014Z,99758.35
2019-02-21T13:46:37.275Z,99764.44
2019-02-21T13:49:04.854Z,99764.41
2019-02-21T13:51:36.547Z,99759.69
2019-02-21T13:54:08.522Z,99761.12
2019-02-21T13:56:40.731Z,99761.20
2019-02-21T13:59:12.536Z,99753.67
2019-02-21T14:01:44.377Z,99760.94
2019-02-21T14:04:16.112Z,99751.09
2019-02-21T14:06:48.103Z,99756.73
2019-02-21T14:09:20.610Z,99756.48
2019-02-21T14:11:52.286Z,99750.06
2019-02-21T14:14:24.190Z,99749.85
2019-02-21T14:16:56.053Z,99748.50
2019-02-21T14:19:27.889Z,99749.83
2019-02-21T14:22:00.185Z,99745.82
2019-02-21T14:24:36.710Z,99745.33
2019-02-21T14:27:08.986Z,99737.23
2019-02-21T14:29:40.868Z,99733.05
2019-02-21T14:32:13.114Z,99734.50
2019-02-21T14:34:45.013Z,99732.28
2019-02-21T14:37:16.804Z,99734.59
2019-02-21T14:39:48.607Z,99731.70
2019-02-21T14:42:20.696Z,99735.66
2019-02-21T14:44:52.580Z,99734.55
2019-02-21T14:47:24.474Z,99726.48
2019-02-21T14:49:57.469Z,99729.39
2019-02-21T14:52:29.401Z,99734.05
2019-02-21T14:55:01.295Z,99734.61
2019-02-21T14:57:40.444Z,99731.16
2019-02-21T15:00:08.787Z,99733.83
2019-02-21T15:02:40.564Z,99736.99
2019-02-21T15:05:13.756Z,99726.97
2019-02-21T15:07:45.583Z,99726.77
2019-02-21T15:10:18.250Z,99732.03
2019-02-21T15:12:50.147Z,99735.50
2019-02-21T15:15:22.317Z,99729.19
2019-02-21T15:17:54.440Z,99730.14
2019-02-21T15:20:36.465Z,99732.77
2019-02-21T15:22:59.870Z,99729.58
2019-02-21T15:25:31.559Z,99729.20
2019-02-21T15:28:03.250Z,99727.98
2019-02-21T15:30:35.023Z,99725.27
2019-02-21T15:33:06.981Z,99725.75
2019-02-21T15:35:38.989Z,99725.58
2019-02-21T15:38:19.587Z,99721.98
2019-02-21T15:40:45.626Z,99728.56
2019-02-21T15:43:17.331Z,99721.09
2019-02-21T15:45:49.693Z,99720.66
2019-02-21T15:48:21.664Z,99715.21
2019-02-21T15:50:53.660Z,99717.50
2019-02-21T15:53:25.725Z,99717.50
2019-02-21T15:55:57.863Z,99718.13
2019-02-21T15:58:30.280Z,99711.84
2019-02-21T16:01:02.173Z,99713.39
2019-02-21T16:03:34.125Z,99712.59
2019-02-21T16:06:06.037Z,99715.39
2019-02-21T16:08:38.347Z,99707.53
2019-02-21T16:11:10.150Z,99707.75
2019-02-21T16:13:42.769Z,99711.03
2019-02-21T16:16:14.822Z,99712.88
2019-02-21T16:18:47.721Z,99712.69
2019-02-21T16:21:19.506Z,99712.20
2019-02-21T16:23:53.679Z,99710.98
2019-02-21T16:26:25.277Z,99716.41
2019-02-21T16:28:57.248Z,99710.95
2019-02-21T16:31:28.997Z,99710.02
2019-02-21T16:34:01.328Z,99709.16
2019-02-21T16:36:33.435Z,99705.66
2019-02-21T16:39:06.251Z,99709.41
2019-02-21T16:41:38.608Z,99704.48
2019-02-21T16:44:10.520Z,99702.63
2019-02-21T16:46:42.253Z,99706.38
2019-02-21T16:49:14.078Z,99712.10
2019-02-21T16:51:45.929Z,99711.27
2019-02-21T16:54:17.837Z,99712.47
2019-02-21T16:56:49.638Z,99714.84
2019-02-21T16:59:21.600Z,99711.16
2019-02-21T17:01:53.391Z,99713.06
2019-02-21T17:04:25.220Z,99711.66
2019-02-21T17:06:57.017Z,99716.48
2019-02-21T17:09:29.242Z,99708.28
2019-02-21T17:12:00.964Z,99716.48
2019-02-21T17:14:32.760Z,99718.56
2019-02-21T17:17:05.082Z,99732.37
2019-02-21T17:19:37.271Z,99730.06
2019-02-21T17:22:09.524Z,99730.66
2019-02-21T17:24:41.873Z,99729.95
2019-02-21T17:27:14.500Z,99734.08
2019-02-21T17:29:46.624Z,99732.81
2019-02-21T17:32:18.795Z,99735.26
2019-02-21T17:34:51.371Z,99745.51
2019-02-21T17:37:25.289Z,99747.64
2019-02-21T17:39:56.948Z,99753.73
2019-02-21T17:42:28.942Z,99752.78
2019-02-21T17:45:01.533Z,99751.04
2019-02-21T17:47:33.958Z,99749.39
2019-02-21T17:50:06.229Z,99749.28
2019-02-21T17:52:39.580Z,99746.50
2019-02-21T17:55:13.090Z,99746.45
2019-02-21T17:57:47.328Z,99747.47
2019-02-21T18:00:28.177Z,99748.25
2019-02-21T18:03:01.833Z,99755.41
2019-02-21T18:05:36.012Z,99748.21
2019-02-21T18:08:11.373Z,99749.69
2019-02-21T18:10:45.247Z,99746.91
2019-02-21T18:13:19.484Z,99746.44
2019-02-21T18:15:53.652Z,99746.60
2019-02-21T18:18:27.107Z,99747.05
2019-02-21T18:21:02.141Z,99746.66
2019-02-21T18:23:35.783Z,99748.84
2019-02-21T18:26:17.824Z,99749.34
2019-02-21T18:28:51.954Z,99749.28
2019-02-21T18:31:25.708Z,99743.48
2019-02-21T18:34:02.940Z,99749.42
2019-02-21T18:36:37.221Z,99755.11
2019-02-21T18:39:11.234Z,99754.38
2019-02-21T18:41:45.880Z,99758.95
2019-02-21T18:44:19.241Z,99753.65
2019-02-21T18:46:53.661Z,99754.81
2019-02-21T18:49:27.400Z,99757.23
2019-02-21T18:52:00.937Z,99754.42
2019-02-21T18:54:35.616Z,99753.65
2019-02-21T18:57:09.155Z,99749.75
2019-02-21T18:59:43.989Z,99755.29
2019-02-21T19:02:19.803Z,99756.00
2019-02-21T19:04:53.006Z,99752.11
2019-02-21T19:07:26.815Z,99748.32
2019-02-21T19:10:02.561Z,99754.22
2019-02-21T19:12:36.172Z,99754.56
2019-02-21T19:15:09.788Z,99759.55
2019-02-21T19:17:43.920Z,99761.77
2019-02-21T19:20:23.917Z,99760.89
2019-02-21T19:22:59.105Z,99758.33
2019-02-21T19:25:32.420Z,99765.77
2019-02-21T19:28:07.010Z,99767.48
2019-02-21T19:30:46.629Z,99768.70
2019-02-21T19:33:22.543Z,99773.53
2019-02-21T19:35:57.618Z,99770.55
2019-02-21T19:38:31.152Z,99780.66
2019-02-21T19:41:04.763Z,99784.73
2019-02-21T19:43:38.209Z,99790.42
2019-02-21T19:46:11.816Z,99789.00
2019-02-21T19:48:45.642Z,99794.70
2019-02-21T19:51:19.107Z,99802.72
2019-02-21T19:53:52.707Z,99804.09
2019-02-21T19:56:25.969Z,99818.47
2019-02-21T19:58:59.976Z,99812.20
2019-02-21T20:01:33.802Z,99818.02
2019-02-21T20:04:07.474Z,99811.94
2019-02-21T20:06:41.032Z,99815.04
2019-02-21T20:09:16.558Z,99817.92
2019-02-21T20:11:58.571Z,99816.03
2019-02-21T20:14:32.474Z,99816.53
2019-02-21T20:17:05.752Z,99812.35
2019-02-21T20:19:42.845Z,99817.69
2019-02-21T20:22:17.052Z,99808.53
2019-02-21T20:24:50.684Z,99816.84
2019-02-21T20:27:27.214Z,99824.44
2019-02-21T20:30:00.698Z,99828.92
2019-02-21T20:32:34.569Z,99829.27
2019-02-21T20:35:08.480Z,99813.62
2019-02-21T20:37:41.889Z,99814.95
2019-02-21T20:40:18.105Z,99814.32
2019-02-21T20:42:51.891Z,99813.42
2019-02-21T20:45:25.578Z,99810.09
2019-02-21T20:47:59.181Z,99818.86
2019-02-21T20:50:32.650Z,99813.50
2019-02-21T20:53:05.942Z,99814.01
2019-02-21T20:55:43.795Z,99815.27
2019-02-21T20:58:16.402Z,99821.53
2019-02-21T21:00:49.700Z,99818.75
2019-02-21T21:03:24.120Z,99822.31
2019-02-21T21:05:57.997Z,99824.90
2019-02-21T21:08:42.460Z,99824.73
2019-02-21T21:11:09.454Z,99828.05
2019-02-21T21:13:44.240Z,99830.00
2019-02-21T21:16:18.168Z,99831.97
2019-02-21T21:18:54.895Z,99828.45
2019-02-21T21:21:31.862Z,99824.89
2019-02-21T21:24:05.559Z,99827.41
2019-02-21T21:26:38.822Z,99829.89
2019-02-21T21:29:12.340Z,99825.99
2019-02-21T21:31:45.679Z,99822.25
2019-02-21T21:34:19.266Z,99835.05
2019-02-21T21:36:52.311Z,99828.34
2019-02-21T21:39:26.057Z,99817.97
2019-02-21T21:42:01.020Z,99819.23
2019-02-21T21:44:35.913Z,99816.97
2019-02-21T21:47:08.735Z,99816.90
2019-02-21T21:49:40.558Z,99814.92
2019-02-21T21:52:12.173Z,99810.02
2019-02-21T21:54:44.985Z,99812.28
2019-02-21T21:57:18.005Z,99807.42
2019-02-21T21:59:50.242Z,99811.53
2019-02-21T22:02:22.234Z,99815.71
2019-02-21T22:04:54.146Z,99809.69
2019-02-21T22:07:26.045Z,99807.95
2019-02-21T22:09:57.822Z,99805.50
2019-02-21T22:12:29.753Z,99801.09
2019-02-21T22:15:04.995Z,99806.03
2019-02-21T22:17:37.052Z,99820.77
2019-02-21T22:20:11.148Z,99816.34
2019-02-21T22:22:43.628Z,99810.85
2019-02-21T22:25:15.757Z,99810.52
2019-02-21T22:27:47.634Z,99806.69
2019-02-21T22:30:20.359Z,99811.37
2019-02-21T22:32:52.421Z,99817.73
2019-02-21T22:35:24.488Z,99814.67
2019-02-21T22:37:56.630Z,99815.96
2019-02-21T22:40:28.705Z,99816.45
2019-02-21T22:43:00.694Z,99831.16
2019-02-21T22:45:32.649Z,99826.91
2019-02-21T22:48:04.710Z,99830.30
2019-02-21T22:50:36.521Z,99830.35
2019-02-21T22:53:08.902Z,99825.61
2019-02-21T22:55:40.971Z,99831.25
2019-02-21T22:58:13.191Z,99835.98
2019-02-21T23:01:21.864Z,99842.91
2019-02-21T23:04:18.044Z,99845.11
2019-02-21T23:07:49.218Z,99842.10
2019-02-21T23:10:21.255Z,99834.80
2019-02-21T23:12:52.841Z,99845.77
2019-02-21T23:15:24.508Z,99849.77
2019-02-21T23:17:56.381Z,99857.56
2019-02-21T23:20:28.426Z,99853.77
2019-02-21T23:23:00.441Z,99853.30
2019-02-21T23:25:33.048Z,99847.33
2019-02-21T23:28:04.995Z,99851.55
2019-02-21T23:30:36.859Z,99854.45
2019-02-21T23:33:09.414Z,99851.50
2019-02-21T23:35:41.020Z,99856.03
2019-02-21T23:38:12.746Z,99847.94
2019-02-21T23:40:44.519Z,99849.23
2019-02-21T23:43:16.070Z,99838.34
2019-02-21T23:45:47.782Z,99841.73
2019-02-21T23:48:19.332Z,99840.56
2019-02-21T23:50:51.142Z,99839.79
2019-02-21T23:53:22.644Z,99835.61
2019-02-21T23:55:54.346Z,99836.90
2019-02-21T23:58:26.222Z,99837.29
